• Join FlightAware (Why Join?)
  • Login
  • US Flag 
01:36AM EDT


 

Airport Tracker/Info


-or-


 

Live Flight TrackerFlight Track Log ✈ EGF3994 ✈ 24-Apr-2013 ✈ KORD - KDAY

Flight Track Log - Related Links

Times and Time Zones

All times are in EDT time to prevent confusion due to time zone crossing. See the EGF3994 flight status page for this flight to view local times or setup timezone preferences in your user account.

Time Position Orientation Groundspeed Altitude Reporting Facility
EDT Latitude Longitude Course Direction KTS MPH feet Rate Location/Type
06:44PM 41.9167 -87.8667 90° East 203 234 3,100  Level Chicago TRACON
06:45PM 41.9614 -87.4805 98° East  Level FlightAware Approximate
06:45PM 41.8667 -87.8000 135° Southeast 261 300 5,100  Level Chicago TRACON
06:46PM 41.9482 -87.3416 95° East  Level FlightAware Approximate
06:46PM 41.8667 -87.7000 90° East 279 321 7,400  Level Chicago TRACON
06:47PM 41.9383 -87.2023 95° East  Level FlightAware Approximate
06:47PM 41.8833 -87.6000 77° East 298 343 9,300  Level Chicago TRACON
06:48PM 41.9333 -87.0627 90° East  Level FlightAware Approximate
06:49PM 41.9333 -86.9408 90° East  Level FlightAware Approximate
06:49PM 41.9200 -87.2897 81° East 337 388 13,600  Level Chicago Center
06:50PM 41.9197 -87.1486 90° East 379 436 14,600 960 Climbing Chicago Center
06:51PM 41.9044 -87.0019 98° East 395 455 15,700 960 Climbing Chicago Center
06:52PM 41.8886 -86.8514 98° East 404 465 16,700 960 Climbing Chicago Center
06:53PM 41.8722 -86.6981 98° East 415 478 17,700 960 Climbing Chicago Center
06:54PM 41.8561 -86.5369 98° East 429 494 18,700 1,020 Climbing Chicago Center
06:55PM 41.8361 -86.3475 98° East 428 493 19,900 1,080 Climbing Chicago Center
06:56PM 41.8200 -86.1872 98° East 432 497 21,000 960 Climbing Chicago Center
06:57PM 41.8028 -86.0247 98° East 439 505 22,000 960 Climbing Chicago Center
06:58PM 41.7858 -85.8619 98° East 440 506 23,000 480 Climbing Chicago Center
06:59PM 41.7678 -85.6956 98° East 448 516 23,000  Level Chicago Center
07:01PM 41.7272 -85.5347 109° East 459 528 23,000  Level Chicago Center
07:02PM 41.6125 -85.4506 151° Southeast 429 494 23,000 -300 Level Chicago Center
07:03PM 41.5014 -85.4044 163° South 416 479 22,400 -780 Descending Chicago Center
07:04PM 41.3900 -85.3600 163° South 419 482 21,500 -960 Descending Chicago Center
07:05PM 41.2789 -85.3139 163° South 419 482 20,500 -1,140 Descending Chicago Center
07:06PM 41.1461 -85.2558 162° South 420 483 19,200 -1,260 Descending Chicago Center
07:07PM 41.0353 -85.2114 163° South 418 481 17,900 -1,200 Descending Chicago Center
07:08PM 40.9389 -85.1258 146° Southeast 432 497 16,800 -1,140 Descending Chicago Center
07:09PM 40.8661 -85.0006 128° Southeast 433 498 15,600 -900 Descending Chicago Center
07:10PM 40.7964 -84.8792 127° Southeast 423 487 15,000 -300 Descending Chicago Center
07:11PM 40.7139 -84.7428 129° Southeast 403 464 15,000 -120 Level Chicago Center
07:12PM 40.6444 -84.6297 129° Southeast 398 458 14,800 -720 Descending Chicago Center
07:13PM 40.5900 -84.5392 128° Southeast 405 466 13,800 -1,140 Descending Indianapolis Center
07:13PM 40.5414 -84.4600 129° Southeast 416 479 13,300 -1,020 Descending Indianapolis Center
07:14PM 40.5181 -84.4197 127° Southeast 413 475 12,800 -1,020 Descending Indianapolis Center
07:14PM 40.4692 -84.3431 130° Southeast 415 478 12,300 -900 Descending Indianapolis Center
07:15PM 40.4456 -84.3028 128° Southeast 408 470 11,900 -1,020 Descending Indianapolis Center
07:15PM 40.3911 -84.2694 155° Southeast 379 436 11,400 -1,080 Descending Indianapolis Center
07:16PM 40.3500 -84.2539 164° South 365 420 10,800 -1,140 Descending Indianapolis Center
07:16PM 40.2992 -84.2406 169° South 320 368 10,300 -780 Descending Indianapolis Center
07:17PM 40.2625 -84.2286 166° South 324 373 10,000 -780 Descending Indianapolis Center
07:18PM 40.1808 -84.2019 166° South 307 353 9,100 -1,140 Descending Indianapolis Center
07:18PM 40.1356 -84.1886 167° South 296 341 8,400 -1,680 Descending Indianapolis Center
07:19PM 40.0881 -84.1700 163° South 299 344 7,400 -1,680 Descending Indianapolis Center
07:19PM 40.0622 -84.1625 167° South 280 322 6,900 -1,680 Descending Indianapolis Center